sensor_id;sensor_type;location;lat;lon;timestamp;P1;durP1;ratioP1;P2;durP2;ratioP2
37407;SDS011;24866;50.248;8.252;2023-07-08T00:01:41;13.07;;;8.82;;
37407;SDS011;24866;50.248;8.252;2023-07-08T00:04:11;16.73;;;9.60;;
37407;SDS011;24866;50.248;8.252;2023-07-08T00:06:41;14.43;;;8.93;;
37407;SDS011;24866;50.248;8.252;2023-07-08T00:09:11;13.75;;;8.85;;
37407;SDS011;24866;50.248;8.252;2023-07-08T00:11:42;14.57;;;9.23;;
37407;SDS011;24866;50.248;8.252;2023-07-08T00:14:12;15.85;;;8.65;;
37407;SDS011;24866;50.248;8.252;2023-07-08T00:16:42;14.93;;;8.85;;
37407;SDS011;24866;50.248;8.252;2023-07-08T00:19:12;16.63;;;9.13;;
37407;SDS011;24866;50.248;8.252;2023-07-08T00:21:47;14.43;;;8.48;;
37407;SDS011;24866;50.248;8.252;2023-07-08T00:24:16;13.70;;;8.77;;
37407;SDS011;24866;50.248;8.252;2023-07-08T00:26:48;15.00;;;8.75;;
37407;SDS011;24866;50.248;8.252;2023-07-08T00:29:17;14.38;;;9.02;;
37407;SDS011;24866;50.248;8.252;2023-07-08T00:31:47;13.82;;;9.10;;
37407;SDS011;24866;50.248;8.252;2023-07-08T00:34:17;16.05;;;9.25;;
37407;SDS011;24866;50.248;8.252;2023-07-08T00:36:47;11.93;;;8.30;;
37407;SDS011;24866;50.248;8.252;2023-07-08T00:39:17;18.23;;;9.57;;
37407;SDS011;24866;50.248;8.252;2023-07-08T00:41:48;13.25;;;8.80;;
37407;SDS011;24866;50.248;8.252;2023-07-08T00:44:19;15.05;;;8.60;;
37407;SDS011;24866;50.248;8.252;2023-07-08T00:46:50;13.98;;;8.48;;
37407;SDS011;24866;50.248;8.252;2023-07-08T00:49:28;11.48;;;8.02;;
37407;SDS011;24866;50.248;8.252;2023-07-08T00:52:19;11.70;;;7.80;;
37407;SDS011;24866;50.248;8.252;2023-07-08T00:54:51;12.27;;;8.38;;
37407;SDS011;24866;50.248;8.252;2023-07-08T00:57:24;13.15;;;8.60;;
37407;SDS011;24866;50.248;8.252;2023-07-08T00:59:58;13.80;;;8.18;;
37407;SDS011;24866;50.248;8.252;2023-07-08T01:02:32;13.88;;;8.00;;
37407;SDS011;24866;50.248;8.252;2023-07-08T01:05:06;13.73;;;8.30;;
37407;SDS011;24866;50.248;8.252;2023-07-08T01:07:40;13.13;;;8.43;;
37407;SDS011;24866;50.248;8.252;2023-07-08T01:10:14;14.07;;;8.40;;
37407;SDS011;24866;50.248;8.252;2023-07-08T01:12:49;12.43;;;8.55;;
37407;SDS011;24866;50.248;8.252;2023-07-08T01:15:25;14.00;;;8.50;;
37407;SDS011;24866;50.248;8.252;2023-07-08T01:18:02;15.68;;;8.15;;
37407;SDS011;24866;50.248;8.252;2023-07-08T01:20:32;11.70;;;7.95;;
37407;SDS011;24866;50.248;8.252;2023-07-08T01:23:03;12.15;;;8.57;;
37407;SDS011;24866;50.248;8.252;2023-07-08T01:25:34;12.15;;;8.45;;
37407;SDS011;24866;50.248;8.252;2023-07-08T01:28:04;14.10;;;9.23;;
37407;SDS011;24866;50.248;8.252;2023-07-08T01:30:36;14.38;;;8.27;;
37407;SDS011;24866;50.248;8.252;2023-07-08T01:33:07;15.90;;;8.52;;
37407;SDS011;24866;50.248;8.252;2023-07-08T01:35:45;12.85;;;8.15;;
37407;SDS011;24866;50.248;8.252;2023-07-08T01:38:25;12.48;;;8.85;;
37407;SDS011;24866;50.248;8.252;2023-07-08T01:40:56;12.40;;;7.82;;
37407;SDS011;24866;50.248;8.252;2023-07-08T01:43:27;16.58;;;8.93;;
37407;SDS011;24866;50.248;8.252;2023-07-08T01:45:57;12.80;;;8.38;;
37407;SDS011;24866;50.248;8.252;2023-07-08T01:48:30;13.88;;;9.00;;
37407;SDS011;24866;50.248;8.252;2023-07-08T01:51:06;12.32;;;7.70;;
37407;SDS011;24866;50.248;8.252;2023-07-08T01:53:38;12.32;;;8.18;;
37407;SDS011;24866;50.248;8.252;2023-07-08T01:56:10;12.65;;;8.52;;
37407;SDS011;24866;50.248;8.252;2023-07-08T01:58:41;17.85;;;8.18;;
37407;SDS011;24866;50.248;8.252;2023-07-08T02:01:11;13.73;;;8.00;;
37407;SDS011;24866;50.248;8.252;2023-07-08T02:03:41;13.43;;;8.23;;
37407;SDS011;24866;50.248;8.252;2023-07-08T02:06:14;14.55;;;8.48;;
37407;SDS011;24866;50.248;8.252;2023-07-08T02:08:45;16.00;;;8.35;;
37407;SDS011;24866;50.248;8.252;2023-07-08T02:11:15;11.63;;;8.18;;
37407;SDS011;24866;50.248;8.252;2023-07-08T02:13:45;13.48;;;7.85;;
37407;SDS011;24866;50.248;8.252;2023-07-08T02:16:15;13.45;;;7.90;;
37407;SDS011;24866;50.248;8.252;2023-07-08T02:18:45;11.80;;;7.47;;
37407;SDS011;24866;50.248;8.252;2023-07-08T02:21:14;10.40;;;7.47;;
37407;SDS011;24866;50.248;8.252;2023-07-08T02:23:48;12.98;;;8.73;;
37407;SDS011;24866;50.248;8.252;2023-07-08T02:26:19;15.38;;;8.75;;
37407;SDS011;24866;50.248;8.252;2023-07-08T02:28:48;15.07;;;8.38;;
37407;SDS011;24866;50.248;8.252;2023-07-08T02:31:18;11.95;;;8.02;;
37407;SDS011;24866;50.248;8.252;2023-07-08T02:33:49;11.82;;;8.55;;
37407;SDS011;24866;50.248;8.252;2023-07-08T02:36:18;13.70;;;8.55;;
37407;SDS011;24866;50.248;8.252;2023-07-08T02:38:50;12.52;;;8.98;;
37407;SDS011;24866;50.248;8.252;2023-07-08T02:41:20;12.38;;;7.68;;
37407;SDS011;24866;50.248;8.252;2023-07-08T02:43:49;12.45;;;7.97;;
37407;SDS011;24866;50.248;8.252;2023-07-08T02:46:19;12.43;;;8.77;;
37407;SDS011;24866;50.248;8.252;2023-07-08T02:48:49;11.20;;;8.23;;
37407;SDS011;24866;50.248;8.252;2023-07-08T02:51:19;13.07;;;8.63;;
37407;SDS011;24866;50.248;8.252;2023-07-08T02:53:50;12.80;;;7.93;;
37407;SDS011;24866;50.248;8.252;2023-07-08T02:56:20;10.95;;;7.82;;
37407;SDS011;24866;50.248;8.252;2023-07-08T02:58:50;12.20;;;7.63;;
37407;SDS011;24866;50.248;8.252;2023-07-08T03:01:20;11.57;;;7.70;;
37407;SDS011;24866;50.248;8.252;2023-07-08T03:03:51;11.88;;;7.90;;
37407;SDS011;24866;50.248;8.252;2023-07-08T03:06:28;11.63;;;7.78;;
37407;SDS011;24866;50.248;8.252;2023-07-08T03:08:59;14.82;;;7.45;;
37407;SDS011;24866;50.248;8.252;2023-07-08T03:11:29;14.95;;;7.85;;
37407;SDS011;24866;50.248;8.252;2023-07-08T03:13:59;14.18;;;8.88;;
37407;SDS011;24866;50.248;8.252;2023-07-08T03:16:29;12.13;;;7.78;;
37407;SDS011;24866;50.248;8.252;2023-07-08T03:18:59;11.82;;;7.88;;
37407;SDS011;24866;50.248;8.252;2023-07-08T03:21:29;16.58;;;9.40;;
37407;SDS011;24866;50.248;8.252;2023-07-08T03:24:00;12.30;;;8.55;;
37407;SDS011;24866;50.248;8.252;2023-07-08T03:26:30;13.25;;;8.27;;
37407;SDS011;24866;50.248;8.252;2023-07-08T03:29:02;13.52;;;8.55;;
37407;SDS011;24866;50.248;8.252;2023-07-08T03:31:32;13.10;;;7.80;;
37407;SDS011;24866;50.248;8.252;2023-07-08T03:34:02;13.40;;;8.02;;
37407;SDS011;24866;50.248;8.252;2023-07-08T03:36:32;10.82;;;7.43;;
37407;SDS011;24866;50.248;8.252;2023-07-08T03:39:03;9.52;;;6.93;;
37407;SDS011;24866;50.248;8.252;2023-07-08T03:41:33;12.45;;;8.48;;
37407;SDS011;24866;50.248;8.252;2023-07-08T03:44:03;12.65;;;7.22;;
37407;SDS011;24866;50.248;8.252;2023-07-08T03:46:32;11.25;;;6.70;;
37407;SDS011;24866;50.248;8.252;2023-07-08T03:49:02;10.27;;;6.50;;
37407;SDS011;24866;50.248;8.252;2023-07-08T03:51:33;11.20;;;6.75;;
37407;SDS011;24866;50.248;8.252;2023-07-08T03:54:07;10.82;;;7.40;;
37407;SDS011;24866;50.248;8.252;2023-07-08T03:56:40;9.63;;;6.68;;
37407;SDS011;24866;50.248;8.252;2023-07-08T03:59:10;10.93;;;6.70;;
37407;SDS011;24866;50.248;8.252;2023-07-08T04:01:40;12.82;;;7.55;;
37407;SDS011;24866;50.248;8.252;2023-07-08T04:04:11;9.60;;;6.50;;
37407;SDS011;24866;50.248;8.252;2023-07-08T04:06:43;11.30;;;7.13;;
37407;SDS011;24866;50.248;8.252;2023-07-08T04:09:15;9.43;;;6.78;;
37407;SDS011;24866;50.248;8.252;2023-07-08T04:11:45;12.23;;;7.22;;
37407;SDS011;24866;50.248;8.252;2023-07-08T04:14:15;11.13;;;6.70;;
37407;SDS011;24866;50.248;8.252;2023-07-08T04:16:46;10.55;;;6.82;;
37407;SDS011;24866;50.248;8.252;2023-07-08T04:19:19;11.00;;;6.30;;
37407;SDS011;24866;50.248;8.252;2023-07-08T04:21:50;11.60;;;7.20;;
37407;SDS011;24866;50.248;8.252;2023-07-08T04:24:21;9.65;;;6.75;;
37407;SDS011;24866;50.248;8.252;2023-07-08T04:26:51;11.90;;;7.95;;
37407;SDS011;24866;50.248;8.252;2023-07-08T04:29:22;12.77;;;8.35;;
37407;SDS011;24866;50.248;8.252;2023-07-08T04:31:52;11.80;;;7.70;;
37407;SDS011;24866;50.248;8.252;2023-07-08T04:34:22;12.27;;;7.97;;
37407;SDS011;24866;50.248;8.252;2023-07-08T04:36:51;12.90;;;8.25;;
37407;SDS011;24866;50.248;8.252;2023-07-08T04:39:23;11.93;;;7.95;;
37407;SDS011;24866;50.248;8.252;2023-07-08T04:41:53;11.45;;;8.02;;
37407;SDS011;24866;50.248;8.252;2023-07-08T04:44:22;12.50;;;7.57;;
37407;SDS011;24866;50.248;8.252;2023-07-08T04:46:53;11.52;;;6.80;;
37407;SDS011;24866;50.248;8.252;2023-07-08T04:49:24;11.73;;;7.40;;
37407;SDS011;24866;50.248;8.252;2023-07-08T04:51:59;11.35;;;7.70;;
37407;SDS011;24866;50.248;8.252;2023-07-08T04:54:31;12.00;;;7.30;;
37407;SDS011;24866;50.248;8.252;2023-07-08T04:57:01;12.80;;;7.53;;
37407;SDS011;24866;50.248;8.252;2023-07-08T04:59:31;10.20;;;7.13;;
37407;SDS011;24866;50.248;8.252;2023-07-08T05:02:02;11.38;;;7.15;;
37407;SDS011;24866;50.248;8.252;2023-07-08T05:04:32;10.90;;;7.15;;
37407;SDS011;24866;50.248;8.252;2023-07-08T05:07:02;10.40;;;6.38;;
37407;SDS011;24866;50.248;8.252;2023-07-08T05:09:34;11.35;;;7.25;;
37407;SDS011;24866;50.248;8.252;2023-07-08T05:12:04;10.43;;;7.35;;
37407;SDS011;24866;50.248;8.252;2023-07-08T05:14:34;9.32;;;6.93;;
37407;SDS011;24866;50.248;8.252;2023-07-08T05:17:04;12.75;;;7.57;;
37407;SDS011;24866;50.248;8.252;2023-07-08T05:19:34;9.93;;;7.35;;
37407;SDS011;24866;50.248;8.252;2023-07-08T05:22:04;12.20;;;7.55;;
37407;SDS011;24866;50.248;8.252;2023-07-08T05:24:35;9.90;;;6.68;;
37407;SDS011;24866;50.248;8.252;2023-07-08T05:27:05;11.77;;;6.95;;
37407;SDS011;24866;50.248;8.252;2023-07-08T05:29:35;11.27;;;7.63;;
37407;SDS011;24866;50.248;8.252;2023-07-08T05:32:05;12.60;;;8.13;;
37407;SDS011;24866;50.248;8.252;2023-07-08T05:34:36;10.75;;;7.35;;
37407;SDS011;24866;50.248;8.252;2023-07-08T05:37:05;10.93;;;7.65;;
37407;SDS011;24866;50.248;8.252;2023-07-08T05:39:37;11.95;;;7.90;;
37407;SDS011;24866;50.248;8.252;2023-07-08T05:42:07;11.57;;;7.97;;
37407;SDS011;24866;50.248;8.252;2023-07-08T05:44:36;13.30;;;8.05;;
37407;SDS011;24866;50.248;8.252;2023-07-08T05:47:06;15.75;;;8.30;;
37407;SDS011;24866;50.248;8.252;2023-07-08T05:49:36;12.65;;;9.07;;
37407;SDS011;24866;50.248;8.252;2023-07-08T05:52:06;11.63;;;7.85;;
37407;SDS011;24866;50.248;8.252;2023-07-08T05:57:10;15.65;;;7.93;;
37407;SDS011;24866;50.248;8.252;2023-07-08T05:59:40;11.95;;;7.35;;
37407;SDS011;24866;50.248;8.252;2023-07-08T06:02:11;12.30;;;8.30;;
37407;SDS011;24866;50.248;8.252;2023-07-08T06:04:41;11.88;;;7.90;;
37407;SDS011;24866;50.248;8.252;2023-07-08T06:07:11;12.65;;;8.73;;
37407;SDS011;24866;50.248;8.252;2023-07-08T06:09:43;12.60;;;8.25;;
37407;SDS011;24866;50.248;8.252;2023-07-08T06:12:13;12.10;;;7.65;;
37407;SDS011;24866;50.248;8.252;2023-07-08T06:14:42;10.20;;;6.88;;
37407;SDS011;24866;50.248;8.252;2023-07-08T06:17:12;11.35;;;7.50;;
37407;SDS011;24866;50.248;8.252;2023-07-08T06:19:42;10.63;;;7.60;;
37407;SDS011;24866;50.248;8.252;2023-07-08T06:22:12;13.73;;;7.10;;
37407;SDS011;24866;50.248;8.252;2023-07-08T06:24:43;10.40;;;7.38;;
37407;SDS011;24866;50.248;8.252;2023-07-08T06:27:15;9.65;;;6.72;;
37407;SDS011;24866;50.248;8.252;2023-07-08T06:29:44;11.93;;;7.32;;
37407;SDS011;24866;50.248;8.252;2023-07-08T06:32:14;13.70;;;8.27;;
37407;SDS011;24866;50.248;8.252;2023-07-08T06:34:44;13.40;;;8.40;;
37407;SDS011;24866;50.248;8.252;2023-07-08T06:37:14;12.07;;;7.15;;
37407;SDS011;24866;50.248;8.252;2023-07-08T06:39:45;12.48;;;8.13;;
37407;SDS011;24866;50.248;8.252;2023-07-08T06:42:15;10.73;;;7.05;;
37407;SDS011;24866;50.248;8.252;2023-07-08T06:44:45;11.43;;;7.10;;
37407;SDS011;24866;50.248;8.252;2023-07-08T06:47:18;11.25;;;7.03;;
37407;SDS011;24866;50.248;8.252;2023-07-08T06:49:49;11.93;;;8.05;;
37407;SDS011;24866;50.248;8.252;2023-07-08T06:52:19;13.15;;;7.88;;
37407;SDS011;24866;50.248;8.252;2023-07-08T06:54:50;15.75;;;8.05;;
37407;SDS011;24866;50.248;8.252;2023-07-08T06:57:20;11.20;;;7.22;;
37407;SDS011;24866;50.248;8.252;2023-07-08T06:59:50;11.20;;;8.23;;
37407;SDS011;24866;50.248;8.252;2023-07-08T07:02:20;15.23;;;7.38;;
37407;SDS011;24866;50.248;8.252;2023-07-08T07:04:50;12.40;;;8.20;;
37407;SDS011;24866;50.248;8.252;2023-07-08T07:07:19;13.30;;;9.35;;
37407;SDS011;24866;50.248;8.252;2023-07-08T07:09:51;11.73;;;7.30;;
37407;SDS011;24866;50.248;8.252;2023-07-08T07:12:20;15.52;;;9.60;;
37407;SDS011;24866;50.248;8.252;2023-07-08T07:14:50;13.05;;;8.65;;
37407;SDS011;24866;50.248;8.252;2023-07-08T07:17:21;11.40;;;7.95;;
37407;SDS011;24866;50.248;8.252;2023-07-08T07:19:52;12.43;;;8.38;;
37407;SDS011;24866;50.248;8.252;2023-07-08T07:22:22;13.65;;;8.25;;
37407;SDS011;24866;50.248;8.252;2023-07-08T07:24:54;12.80;;;7.40;;
37407;SDS011;24866;50.248;8.252;2023-07-08T07:27:23;15.25;;;8.23;;
37407;SDS011;24866;50.248;8.252;2023-07-08T07:29:53;12.18;;;6.97;;
37407;SDS011;24866;50.248;8.252;2023-07-08T07:32:23;14.05;;;6.30;;
37407;SDS011;24866;50.248;8.252;2023-07-08T07:34:53;12.07;;;6.45;;
37407;SDS011;24866;50.248;8.252;2023-07-08T07:37:23;15.25;;;8.10;;
37407;SDS011;24866;50.248;8.252;2023-07-08T07:39:54;12.25;;;7.00;;
37407;SDS011;24866;50.248;8.252;2023-07-08T07:42:26;13.82;;;7.80;;
37407;SDS011;24866;50.248;8.252;2023-07-08T07:47:26;12.63;;;6.90;;
37407;SDS011;24866;50.248;8.252;2023-07-08T07:49:56;9.43;;;6.45;;
37407;SDS011;24866;50.248;8.252;2023-07-08T07:52:27;14.02;;;7.15;;
37407;SDS011;24866;50.248;8.252;2023-07-08T07:54:58;10.52;;;6.65;;
37407;SDS011;24866;50.248;8.252;2023-07-08T07:57:28;13.35;;;6.72;;
37407;SDS011;24866;50.248;8.252;2023-07-08T07:59:58;10.63;;;7.75;;
37407;SDS011;24866;50.248;8.252;2023-07-08T08:02:27;13.77;;;7.53;;
37407;SDS011;24866;50.248;8.252;2023-07-08T08:04:57;13.90;;;6.78;;
37407;SDS011;24866;50.248;8.252;2023-07-08T08:07:27;14.68;;;7.88;;
37407;SDS011;24866;50.248;8.252;2023-07-08T08:09:58;10.98;;;6.93;;
37407;SDS011;24866;50.248;8.252;2023-07-08T08:12:28;13.30;;;7.15;;
37407;SDS011;24866;50.248;8.252;2023-07-08T08:14:58;11.80;;;7.32;;
37407;SDS011;24866;50.248;8.252;2023-07-08T08:17:28;18.25;;;7.43;;
37407;SDS011;24866;50.248;8.252;2023-07-08T08:19:57;10.68;;;6.35;;
37407;SDS011;24866;50.248;8.252;2023-07-08T08:22:27;12.52;;;7.13;;
37407;SDS011;24866;50.248;8.252;2023-07-08T08:24:58;10.77;;;6.20;;
37407;SDS011;24866;50.248;8.252;2023-07-08T08:27:30;10.10;;;6.32;;
37407;SDS011;24866;50.248;8.252;2023-07-08T08:29:59;9.05;;;6.10;;
37407;SDS011;24866;50.248;8.252;2023-07-08T08:32:29;9.85;;;6.10;;
37407;SDS011;24866;50.248;8.252;2023-07-08T08:34:59;9.38;;;5.22;;
37407;SDS011;24866;50.248;8.252;2023-07-08T08:37:29;9.23;;;6.40;;
37407;SDS011;24866;50.248;8.252;2023-07-08T08:40:00;10.02;;;6.70;;
37407;SDS011;24866;50.248;8.252;2023-07-08T08:42:31;9.85;;;5.40;;
37407;SDS011;24866;50.248;8.252;2023-07-08T08:45:04;8.20;;;5.53;;
37407;SDS011;24866;50.248;8.252;2023-07-08T08:50:11;8.80;;;5.15;;
37407;SDS011;24866;50.248;8.252;2023-07-08T08:52:53;8.05;;;5.53;;
37407;SDS011;24866;50.248;8.252;2023-07-08T08:55:26;8.90;;;6.13;;
37407;SDS011;24866;50.248;8.252;2023-07-08T08:57:59;8.50;;;5.65;;
37407;SDS011;24866;50.248;8.252;2023-07-08T09:00:37;8.15;;;5.60;;
37407;SDS011;24866;50.248;8.252;2023-07-08T09:03:15;9.18;;;5.40;;
37407;SDS011;24866;50.248;8.252;2023-07-08T09:08:18;8.27;;;5.78;;
37407;SDS011;24866;50.248;8.252;2023-07-08T09:10:55;8.13;;;5.50;;
37407;SDS011;24866;50.248;8.252;2023-07-08T09:13:28;10.05;;;5.40;;
37407;SDS011;24866;50.248;8.252;2023-07-08T09:16:02;8.52;;;5.38;;
37407;SDS011;24866;50.248;8.252;2023-07-08T09:18:36;9.55;;;5.30;;
37407;SDS011;24866;50.248;8.252;2023-07-08T09:21:15;10.60;;;5.85;;
37407;SDS011;24866;50.248;8.252;2023-07-08T09:23:49;10.70;;;5.70;;
37407;SDS011;24866;50.248;8.252;2023-07-08T09:26:24;8.05;;;5.20;;
37407;SDS011;24866;50.248;8.252;2023-07-08T09:28:56;8.30;;;5.82;;
37407;SDS011;24866;50.248;8.252;2023-07-08T09:31:27;8.13;;;5.30;;
37407;SDS011;24866;50.248;8.252;2023-07-08T09:34:05;7.95;;;5.60;;
37407;SDS011;24866;50.248;8.252;2023-07-08T09:36:38;8.25;;;5.50;;
37407;SDS011;24866;50.248;8.252;2023-07-08T09:39:11;8.13;;;5.57;;
37407;SDS011;24866;50.248;8.252;2023-07-08T09:41:44;8.13;;;5.10;;
37407;SDS011;24866;50.248;8.252;2023-07-08T09:46:50;8.20;;;5.43;;
37407;SDS011;24866;50.248;8.252;2023-07-08T09:49:23;7.47;;;5.30;;
37407;SDS011;24866;50.248;8.252;2023-07-08T09:51:56;9.93;;;5.78;;
37407;SDS011;24866;50.248;8.252;2023-07-08T09:54:27;8.68;;;5.75;;
37407;SDS011;24866;50.248;8.252;2023-07-08T09:57:00;11.53;;;5.40;;
37407;SDS011;24866;50.248;8.252;2023-07-08T09:59:38;9.48;;;5.78;;
37407;SDS011;24866;50.248;8.252;2023-07-08T10:05:12;9.05;;;5.93;;
37407;SDS011;24866;50.248;8.252;2023-07-08T10:07:46;8.43;;;5.35;;
37407;SDS011;24866;50.248;8.252;2023-07-08T10:10:18;10.43;;;5.45;;
37407;SDS011;24866;50.248;8.252;2023-07-08T10:12:56;7.63;;;4.82;;
37407;SDS011;24866;50.248;8.252;2023-07-08T10:15:30;6.75;;;4.97;;
37407;SDS011;24866;50.248;8.252;2023-07-08T10:18:07;14.40;;;5.47;;
37407;SDS011;24866;50.248;8.252;2023-07-08T10:20:45;9.10;;;5.20;;
37407;SDS011;24866;50.248;8.252;2023-07-08T10:23:23;12.90;;;5.45;;
37407;SDS011;24866;50.248;8.252;2023-07-08T10:26:06;10.65;;;5.10;;
37407;SDS011;24866;50.248;8.252;2023-07-08T10:28:44;8.27;;;5.32;;
37407;SDS011;24866;50.248;8.252;2023-07-08T10:31:22;8.00;;;4.97;;
37407;SDS011;24866;50.248;8.252;2023-07-08T10:34:01;8.38;;;5.03;;
37407;SDS011;24866;50.248;8.252;2023-07-08T10:36:43;9.15;;;4.90;;
37407;SDS011;24866;50.248;8.252;2023-07-08T10:39:29;7.35;;;5.30;;
37407;SDS011;24866;50.248;8.252;2023-07-08T10:42:11;10.75;;;5.93;;
37407;SDS011;24866;50.248;8.252;2023-07-08T10:44:54;8.77;;;5.40;;
37407;SDS011;24866;50.248;8.252;2023-07-08T10:47:33;7.97;;;5.65;;
37407;SDS011;24866;50.248;8.252;2023-07-08T10:50:16;10.15;;;6.03;;
37407;SDS011;24866;50.248;8.252;2023-07-08T10:53:01;9.38;;;4.97;;
37407;SDS011;24866;50.248;8.252;2023-07-08T10:55:46;10.05;;;6.20;;
37407;SDS011;24866;50.248;8.252;2023-07-08T10:58:28;8.85;;;5.13;;
37407;SDS011;24866;50.248;8.252;2023-07-08T11:01:13;10.45;;;6.13;;
37407;SDS011;24866;50.248;8.252;2023-07-08T11:04:00;10.30;;;6.18;;
37407;SDS011;24866;50.248;8.252;2023-07-08T11:06:50;8.13;;;5.72;;
37407;SDS011;24866;50.248;8.252;2023-07-08T11:09:24;10.82;;;7.18;;
37407;SDS011;24866;50.248;8.252;2023-07-08T11:11:58;11.48;;;5.43;;
37407;SDS011;24866;50.248;8.252;2023-07-08T11:14:36;9.65;;;5.97;;
37407;SDS011;24866;50.248;8.252;2023-07-08T11:17:14;9.65;;;5.70;;
37407;SDS011;24866;50.248;8.252;2023-07-08T11:19:51;7.40;;;5.10;;
37407;SDS011;24866;50.248;8.252;2023-07-08T11:22:26;8.20;;;5.63;;
37407;SDS011;24866;50.248;8.252;2023-07-08T11:24:58;11.05;;;6.07;;
37407;SDS011;24866;50.248;8.252;2023-07-08T11:27:31;9.67;;;5.97;;
37407;SDS011;24866;50.248;8.252;2023-07-08T11:30:05;10.38;;;6.45;;
37407;SDS011;24866;50.248;8.252;2023-07-08T11:32:47;10.50;;;6.43;;
37407;SDS011;24866;50.248;8.252;2023-07-08T11:35:25;8.18;;;5.80;;
37407;SDS011;24866;50.248;8.252;2023-07-08T11:38:04;12.90;;;6.45;;
37407;SDS011;24866;50.248;8.252;2023-07-08T11:40:37;10.30;;;6.72;;
37407;SDS011;24866;50.248;8.252;2023-07-08T11:43:20;7.72;;;6.13;;
37407;SDS011;24866;50.248;8.252;2023-07-08T11:45:51;12.68;;;6.03;;
37407;SDS011;24866;50.248;8.252;2023-07-08T11:48:27;9.10;;;5.88;;
37407;SDS011;24866;50.248;8.252;2023-07-08T11:51:00;11.18;;;6.70;;
37407;SDS011;24866;50.248;8.252;2023-07-08T11:53:35;14.70;;;6.38;;
37407;SDS011;24866;50.248;8.252;2023-07-08T11:56:18;13.10;;;6.95;;
37407;SDS011;24866;50.248;8.252;2023-07-08T11:58:52;8.40;;;6.00;;
37407;SDS011;24866;50.248;8.252;2023-07-08T12:01:28;8.10;;;5.82;;
37407;SDS011;24866;50.248;8.252;2023-07-08T12:04:17;10.82;;;6.85;;
37407;SDS011;24866;50.248;8.252;2023-07-08T12:07:12;10.15;;;6.80;;
37407;SDS011;24866;50.248;8.252;2023-07-08T12:09:47;10.18;;;5.68;;
37407;SDS011;24866;50.248;8.252;2023-07-08T12:14:53;8.90;;;5.88;;
37407;SDS011;24866;50.248;8.252;2023-07-08T12:17:28;11.32;;;5.90;;
37407;SDS011;24866;50.248;8.252;2023-07-08T12:20:01;9.73;;;6.40;;
37407;SDS011;24866;50.248;8.252;2023-07-08T12:22:33;8.93;;;5.63;;
37407;SDS011;24866;50.248;8.252;2023-07-08T12:25:04;7.78;;;5.43;;
37407;SDS011;24866;50.248;8.252;2023-07-08T12:27:40;7.53;;;5.50;;
37407;SDS011;24866;50.248;8.252;2023-07-08T12:30:10;7.28;;;5.57;;
37407;SDS011;24866;50.248;8.252;2023-07-08T12:32:41;8.30;;;5.00;;
37407;SDS011;24866;50.248;8.252;2023-07-08T12:35:18;10.10;;;5.25;;
37407;SDS011;24866;50.248;8.252;2023-07-08T12:37:51;9.30;;;5.10;;
37407;SDS011;24866;50.248;8.252;2023-07-08T12:40:22;9.10;;;5.63;;
37407;SDS011;24866;50.248;8.252;2023-07-08T12:42:52;9.82;;;5.15;;
37407;SDS011;24866;50.248;8.252;2023-07-08T12:45:23;8.57;;;5.47;;
37407;SDS011;24866;50.248;8.252;2023-07-08T12:47:54;9.75;;;5.38;;
37407;SDS011;24866;50.248;8.252;2023-07-08T12:50:25;9.50;;;4.68;;
37407;SDS011;24866;50.248;8.252;2023-07-08T12:52:55;9.15;;;4.80;;
37407;SDS011;24866;50.248;8.252;2023-07-08T12:55:25;8.07;;;5.25;;
37407;SDS011;24866;50.248;8.252;2023-07-08T12:57:56;9.38;;;5.75;;
37407;SDS011;24866;50.248;8.252;2023-07-08T13:00:29;7.93;;;5.28;;
37407;SDS011;24866;50.248;8.252;2023-07-08T13:03:05;6.50;;;4.93;;
37407;SDS011;24866;50.248;8.252;2023-07-08T13:05:38;9.20;;;5.22;;
37407;SDS011;24866;50.248;8.252;2023-07-08T13:08:10;10.65;;;5.70;;
37407;SDS011;24866;50.248;8.252;2023-07-08T13:10:41;7.70;;;5.30;;
37407;SDS011;24866;50.248;8.252;2023-07-08T13:13:17;9.20;;;5.40;;
37407;SDS011;24866;50.248;8.252;2023-07-08T13:15:50;7.22;;;5.72;;
37407;SDS011;24866;50.248;8.252;2023-07-08T13:18:24;7.28;;;5.35;;
37407;SDS011;24866;50.248;8.252;2023-07-08T13:21:00;10.00;;;6.10;;
37407;SDS011;24866;50.248;8.252;2023-07-08T13:23:32;9.68;;;5.70;;
37407;SDS011;24866;50.248;8.252;2023-07-08T13:26:11;9.18;;;5.70;;
37407;SDS011;24866;50.248;8.252;2023-07-08T13:28:42;8.90;;;5.63;;
37407;SDS011;24866;50.248;8.252;2023-07-08T13:31:14;11.60;;;5.60;;
37407;SDS011;24866;50.248;8.252;2023-07-08T13:36:19;8.93;;;6.03;;
37407;SDS011;24866;50.248;8.252;2023-07-08T13:38:51;9.80;;;5.47;;
37407;SDS011;24866;50.248;8.252;2023-07-08T13:41:21;8.45;;;5.22;;
37407;SDS011;24866;50.248;8.252;2023-07-08T13:43:52;9.13;;;5.57;;
37407;SDS011;24866;50.248;8.252;2023-07-08T13:46:28;8.98;;;5.93;;
37407;SDS011;24866;50.248;8.252;2023-07-08T13:49:00;10.13;;;5.53;;
37407;SDS011;24866;50.248;8.252;2023-07-08T13:51:33;9.23;;;5.82;;
37407;SDS011;24866;50.248;8.252;2023-07-08T13:54:08;9.93;;;5.47;;
37407;SDS011;24866;50.248;8.252;2023-07-08T13:56:43;9.50;;;5.65;;
37407;SDS011;24866;50.248;8.252;2023-07-08T13:59:15;10.07;;;5.22;;
37407;SDS011;24866;50.248;8.252;2023-07-08T14:01:48;9.02;;;5.70;;
37407;SDS011;24866;50.248;8.252;2023-07-08T14:04:21;11.52;;;5.95;;
37407;SDS011;24866;50.248;8.252;2023-07-08T14:06:58;9.98;;;5.93;;
37407;SDS011;24866;50.248;8.252;2023-07-08T14:09:28;8.40;;;5.67;;
37407;SDS011;24866;50.248;8.252;2023-07-08T14:11:58;12.02;;;5.55;;
37407;SDS011;24866;50.248;8.252;2023-07-08T14:14:28;11.20;;;5.90;;
37407;SDS011;24866;50.248;8.252;2023-07-08T14:16:58;12.13;;;6.10;;
37407;SDS011;24866;50.248;8.252;2023-07-08T14:19:29;7.15;;;4.47;;
37407;SDS011;24866;50.248;8.252;2023-07-08T14:22:03;8.48;;;5.82;;
37407;SDS011;24866;50.248;8.252;2023-07-08T14:24:48;8.55;;;5.68;;
37407;SDS011;24866;50.248;8.252;2023-07-08T14:27:18;8.57;;;4.95;;
37407;SDS011;24866;50.248;8.252;2023-07-08T14:29:49;7.18;;;4.70;;
37407;SDS011;24866;50.248;8.252;2023-07-08T14:32:21;9.35;;;5.68;;
37407;SDS011;24866;50.248;8.252;2023-07-08T14:34:55;8.48;;;5.35;;
37407;SDS011;24866;50.248;8.252;2023-07-08T14:39:58;9.32;;;5.20;;
37407;SDS011;24866;50.248;8.252;2023-07-08T14:42:28;8.50;;;4.90;;
37407;SDS011;24866;50.248;8.252;2023-07-08T14:44:58;8.00;;;4.90;;
37407;SDS011;24866;50.248;8.252;2023-07-08T14:47:28;7.25;;;4.85;;
37407;SDS011;24866;50.248;8.252;2023-07-08T14:49:58;8.43;;;4.80;;
37407;SDS011;24866;50.248;8.252;2023-07-08T14:52:29;9.30;;;5.13;;
37407;SDS011;24866;50.248;8.252;2023-07-08T14:55:00;9.68;;;5.45;;
37407;SDS011;24866;50.248;8.252;2023-07-08T14:57:30;9.43;;;5.20;;
37407;SDS011;24866;50.248;8.252;2023-07-08T15:00:04;8.52;;;4.65;;
37407;SDS011;24866;50.248;8.252;2023-07-08T15:02:36;12.30;;;5.13;;
37407;SDS011;24866;50.248;8.252;2023-07-08T15:05:12;8.27;;;4.88;;
37407;SDS011;24866;50.248;8.252;2023-07-08T15:07:47;8.60;;;5.05;;
37407;SDS011;24866;50.248;8.252;2023-07-08T15:10:19;7.07;;;4.35;;
37407;SDS011;24866;50.248;8.252;2023-07-08T15:12:49;10.02;;;4.72;;
37407;SDS011;24866;50.248;8.252;2023-07-08T15:15:20;8.60;;;4.80;;
37407;SDS011;24866;50.248;8.252;2023-07-08T15:17:55;8.38;;;4.43;;
37407;SDS011;24866;50.248;8.252;2023-07-08T15:20:25;11.20;;;4.95;;
37407;SDS011;24866;50.248;8.252;2023-07-08T15:22:56;8.77;;;5.32;;
37407;SDS011;24866;50.248;8.252;2023-07-08T15:25:26;10.02;;;4.22;;
37407;SDS011;24866;50.248;8.252;2023-07-08T15:27:57;8.15;;;4.72;;
37407;SDS011;24866;50.248;8.252;2023-07-08T15:30:27;8.55;;;4.35;;
37407;SDS011;24866;50.248;8.252;2023-07-08T15:32:58;8.23;;;4.80;;